createdAt,value
2023-01-01T00:01:44.334Z,116.40
2023-01-01T00:04:18.916Z,101.35
2023-01-01T00:06:52.683Z,76.72
2023-01-01T00:12:21.379Z,83.22
2023-01-01T00:14:49.641Z,65.60
2023-01-01T00:17:23.714Z,63.97
2023-01-01T00:19:57.257Z,63.00
2023-01-01T00:22:53.377Z,59.40
2023-01-01T00:25:29.677Z,62.92
2023-01-01T00:28:02.964Z,66.60
2023-01-01T00:30:31.992Z,52.97
2023-01-01T00:33:03.731Z,308.33
2023-01-01T00:35:36.815Z,326.70
2023-01-01T00:38:06.019Z,246.82
2023-01-01T00:40:35.576Z,134.93
2023-01-01T00:43:09.014Z,264.33
2023-01-01T00:45:39.498Z,201.43
2023-01-01T00:48:10.479Z,101.95
2023-01-01T00:50:40.851Z,151.10
2023-01-01T00:53:09.671Z,119.40
2023-01-01T00:55:45.604Z,111.82
2023-01-01T00:58:17.479Z,90.47
2023-01-01T01:00:50.170Z,92.82
2023-01-01T01:03:31.319Z,79.53
2023-01-01T01:06:06.060Z,107.10
2023-01-01T01:08:42.293Z,97.63
2023-01-01T01:11:27.239Z,97.35
2023-01-01T01:13:57.564Z,87.30
2023-01-01T01:16:33.979Z,99.38
2023-01-01T01:19:07.719Z,95.07
2023-01-01T01:21:38.171Z,104.50
2023-01-01T01:24:08.046Z,99.10
2023-01-01T01:26:36.942Z,104.35
2023-01-01T01:29:11.498Z,98.85
2023-01-01T01:31:40.689Z,100.47
2023-01-01T01:34:16.006Z,124.68
2023-01-01T01:36:43.729Z,110.38
2023-01-01T01:39:16.160Z,111.88
2023-01-01T01:41:50.392Z,74.23
2023-01-01T01:47:09.335Z,108.45
2023-01-01T01:49:39.605Z,112.65
2023-01-01T01:52:15.192Z,111.47
2023-01-01T01:54:44.194Z,109.00
2023-01-01T01:57:13.785Z,105.07
2023-01-01T01:59:48.553Z,103.47
2023-01-01T02:02:35.147Z,103.43
2023-01-01T02:05:09.617Z,108.50
2023-01-01T02:07:38.704Z,115.18
2023-01-01T02:10:10.235Z,116.43
2023-01-01T02:12:37.885Z,107.88
2023-01-01T02:15:35.008Z,124.25
2023-01-01T02:18:11.419Z,121.40
2023-01-01T02:21:19.334Z,119.30
2023-01-01T02:24:10.339Z,105.00
2023-01-01T02:27:00.389Z,101.57
2023-01-01T02:29:44.828Z,112.97
2023-01-01T02:32:41.888Z,114.95
2023-01-01T02:35:38.741Z,115.13
2023-01-01T02:38:36.863Z,115.90
2023-01-01T02:41:13.452Z,107.60
2023-01-01T02:43:48.004Z,124.13
2023-01-01T02:49:02.187Z,107.30
2023-01-01T02:51:42.915Z,107.30
2023-01-01T02:54:19.126Z,109.85
2023-01-01T02:57:26.145Z,108.38
2023-01-01T03:00:36.786Z,102.53
2023-01-01T03:03:26.129Z,100.63
2023-01-01T03:06:29.892Z,94.88
2023-01-01T03:09:26.007Z,93.65
2023-01-01T03:12:12.718Z,94.80
2023-01-01T03:14:52.226Z,95.45
2023-01-01T03:18:02.393Z,88.07
2023-01-01T03:20:33.703Z,86.35
2023-01-01T03:23:14.639Z,87.95
2023-01-01T03:25:48.031Z,90.70
2023-01-01T03:28:36.177Z,99.32
2023-01-01T03:31:06.769Z,95.40
2023-01-01T03:33:45.206Z,91.78
2023-01-01T03:36:27.773Z,94.35
2023-01-01T03:39:02.063Z,98.70
2023-01-01T03:41:49.563Z,100.13
2023-01-01T03:45:01.757Z,96.15
2023-01-01T03:47:37.919Z,84.70
2023-01-01T03:50:09.708Z,95.50
2023-01-01T03:52:57.057Z,93.00
2023-01-01T03:56:07.316Z,74.88
2023-01-01T03:58:46.906Z,84.43
2023-01-01T04:01:50.538Z,84.30
2023-01-01T04:04:19.227Z,65.03
2023-01-01T04:06:49.973Z,77.57
2023-01-01T04:09:26.886Z,90.18
2023-01-01T04:12:06.534Z,84.47
2023-01-01T04:14:41.680Z,84.40
2023-01-01T04:17:13.059Z,102.55
2023-01-01T04:19:55.009Z,90.10
2023-01-01T04:22:26.625Z,77.95
2023-01-01T04:24:57.664Z,73.72
2023-01-01T04:27:29.228Z,67.95
2023-01-01T04:30:00.564Z,76.05
2023-01-01T04:32:34.413Z,72.85
2023-01-01T04:35:06.647Z,80.38
2023-01-01T04:37:37.272Z,76.07
2023-01-01T04:40:13.208Z,83.35
2023-01-01T04:42:46.151Z,83.63
2023-01-01T04:45:17.316Z,82.15
2023-01-01T04:47:47.200Z,83.30
2023-01-01T04:50:18.052Z,88.65
2023-01-01T04:52:54.902Z,82.82
2023-01-01T04:55:25.981Z,84.03
2023-01-01T04:57:55.811Z,81.40
2023-01-01T05:00:25.600Z,86.38
2023-01-01T05:02:55.622Z,78.60
2023-01-01T05:05:26.212Z,78.97
2023-01-01T05:07:57.911Z,80.93
2023-01-01T05:10:26.883Z,76.10
2023-01-01T05:12:57.433Z,70.28
2023-01-01T05:15:29.683Z,63.53
2023-01-01T05:18:01.060Z,60.00
2023-01-01T05:20:32.551Z,56.70
2023-01-01T05:23:05.527Z,59.22
2023-01-01T05:25:38.106Z,59.83
2023-01-01T05:28:11.511Z,59.13
2023-01-01T05:30:42.341Z,60.33
2023-01-01T05:33:13.180Z,64.55
2023-01-01T05:35:44.282Z,63.47
2023-01-01T05:38:16.276Z,60.53
2023-01-01T05:40:46.485Z,60.58
2023-01-01T05:43:13.641Z,66.38
2023-01-01T05:45:46.818Z,58.17
2023-01-01T05:48:16.477Z,56.95
2023-01-01T05:50:45.991Z,65.40
2023-01-01T05:53:16.100Z,62.95
2023-01-01T05:55:45.843Z,60.80
2023-01-01T05:58:16.953Z,56.80
2023-01-01T06:00:48.120Z,64.25
2023-01-01T06:03:19.989Z,54.55
2023-01-01T06:05:53.670Z,56.20
2023-01-01T06:08:21.974Z,61.00
2023-01-01T06:10:58.745Z,57.03
2023-01-01T06:13:41.463Z,49.78
2023-01-01T06:16:14.547Z,54.15
2023-01-01T06:18:46.263Z,56.15
2023-01-01T06:21:22.043Z,56.95
2023-01-01T06:23:53.509Z,61.25
2023-01-01T06:26:33.144Z,55.03
2023-01-01T06:29:07.239Z,54.70
2023-01-01T06:31:40.958Z,47.90
2023-01-01T06:34:09.835Z,44.58
2023-01-01T06:36:42.189Z,46.20
2023-01-01T06:39:11.078Z,43.65
2023-01-01T06:41:42.235Z,44.72
2023-01-01T06:44:17.297Z,42.22
2023-01-01T06:46:48.197Z,41.30
2023-01-01T06:49:17.891Z,52.97
2023-01-01T06:51:51.387Z,55.47
2023-01-01T06:54:22.691Z,66.55
2023-01-01T06:56:51.051Z,60.92
2023-01-01T06:59:21.903Z,59.40
2023-01-01T07:01:50.803Z,61.92
2023-01-01T07:04:19.367Z,64.60
2023-01-01T07:06:54.266Z,55.00
2023-01-01T07:09:24.294Z,55.78
2023-01-01T07:11:56.600Z,62.38
2023-01-01T07:14:27.321Z,62.70
2023-01-01T07:16:59.677Z,73.18
2023-01-01T07:19:28.640Z,70.65
2023-01-01T07:22:00.870Z,78.00
2023-01-01T07:24:35.371Z,70.53
2023-01-01T07:29:34.933Z,66.95
2023-01-01T07:32:05.372Z,68.70
2023-01-01T07:34:35.732Z,74.75
2023-01-01T07:37:07.687Z,73.40
2023-01-01T07:39:37.635Z,73.93
2023-01-01T07:42:10.844Z,71.60
2023-01-01T07:44:42.376Z,73.95
2023-01-01T07:47:34.816Z,80.20
2023-01-01T07:50:06.472Z,81.10
2023-01-01T07:52:36.295Z,76.03
2023-01-01T07:55:07.040Z,70.03
2023-01-01T07:57:39.522Z,65.88
2023-01-01T08:00:13.766Z,69.32
2023-01-01T08:02:45.244Z,67.10
2023-01-01T08:05:22.616Z,67.97
2023-01-01T08:08:01.716Z,65.53
2023-01-01T08:10:38.864Z,70.10
2023-01-01T08:13:12.952Z,66.43
2023-01-01T08:15:51.789Z,49.40
2023-01-01T08:18:23.376Z,75.10
2023-01-01T08:20:52.905Z,78.00
2023-01-01T08:23:25.482Z,72.07
2023-01-01T08:25:55.173Z,78.80
2023-01-01T08:28:24.499Z,79.40
2023-01-01T08:30:54.266Z,84.03
2023-01-01T08:33:28.983Z,82.45
2023-01-01T08:36:00.636Z,78.50
2023-01-01T08:38:32.564Z,88.18
2023-01-01T08:41:05.510Z,87.07
2023-01-01T08:43:35.570Z,84.30
2023-01-01T08:46:03.994Z,83.18
2023-01-01T08:48:34.658Z,83.00
2023-01-01T08:51:03.555Z,77.25
2023-01-01T08:53:36.229Z,89.07
2023-01-01T08:56:11.668Z,85.65
2023-01-01T08:58:43.479Z,85.53
2023-01-01T09:01:12.735Z,83.45
2023-01-01T09:03:43.752Z,81.15
2023-01-01T09:06:13.741Z,81.50
2023-01-01T09:08:43.542Z,88.65
2023-01-01T09:11:31.541Z,85.57
2023-01-01T09:14:05.617Z,76.75
2023-01-01T09:16:44.159Z,73.88
2023-01-01T09:19:15.659Z,73.32
2023-01-01T09:21:47.201Z,78.35
2023-01-01T09:24:20.079Z,72.30
2023-01-01T09:26:56.459Z,79.38
2023-01-01T09:29:28.025Z,77.57
2023-01-01T09:31:58.354Z,69.43
2023-01-01T09:34:27.250Z,76.60
2023-01-01T09:36:58.471Z,79.10
2023-01-01T09:39:29.204Z,73.97
2023-01-01T09:42:45.211Z,72.85
2023-01-01T09:45:35.572Z,61.45
2023-01-01T09:48:14.214Z,59.10
2023-01-01T09:50:46.504Z,58.30
2023-01-01T09:53:46.180Z,52.03
2023-01-01T09:56:30.579Z,58.08
2023-01-01T09:59:03.103Z,60.38
2023-01-01T10:02:01.367Z,57.35
2023-01-01T10:05:00.471Z,57.63
2023-01-01T10:07:46.455Z,58.38
2023-01-01T10:10:41.610Z,61.63
2023-01-01T10:13:37.293Z,62.65
2023-01-01T10:16:36.934Z,69.18
2023-01-01T10:19:23.073Z,63.90
2023-01-01T10:21:57.634Z,65.55
2023-01-01T10:24:37.321Z,63.20
2023-01-01T10:27:06.696Z,64.78
2023-01-01T10:29:47.168Z,62.90
2023-01-01T10:32:37.496Z,63.67
2023-01-01T10:35:38.748Z,62.50
2023-01-01T10:38:28.964Z,57.20
2023-01-01T10:41:03.610Z,56.38
2023-01-01T10:43:36.050Z,55.25
2023-01-01T10:46:09.839Z,54.08
2023-01-01T10:48:37.671Z,54.72
2023-01-01T10:51:09.853Z,60.25
2023-01-01T10:53:56.743Z,54.67
2023-01-01T10:56:26.265Z,65.90
2023-01-01T10:58:57.627Z,75.50
2023-01-01T11:01:33.611Z,67.97
2023-01-01T11:04:18.684Z,67.45
2023-01-01T11:06:47.874Z,83.60
2023-01-01T11:09:31.672Z,87.50
2023-01-01T11:12:15.246Z,86.93
2023-01-01T11:15:06.868Z,88.75
2023-01-01T11:17:37.266Z,98.65
2023-01-01T11:20:19.384Z,95.30
2023-01-01T11:22:53.864Z,93.18
2023-01-01T11:25:35.554Z,98.32
2023-01-01T11:28:22.583Z,97.88
2023-01-01T11:31:18.025Z,107.32
2023-01-01T11:34:00.598Z,95.07
2023-01-01T11:36:38.003Z,100.15
2023-01-01T11:39:27.709Z,102.53
2023-01-01T11:42:00.433Z,95.97
2023-01-01T11:44:49.007Z,107.45
2023-01-01T11:47:41.862Z,80.00
2023-01-01T11:50:38.836Z,82.22
2023-01-01T11:53:32.868Z,76.72
2023-01-01T11:56:26.203Z,81.53
2023-01-01T11:59:02.695Z,79.47
2023-01-01T12:01:59.152Z,77.90
2023-01-01T12:04:53.704Z,75.65
2023-01-01T12:07:34.816Z,67.97
2023-01-01T12:10:28.160Z,78.20
2023-01-01T12:13:07.787Z,73.83
2023-01-01T12:16:06.196Z,73.82
2023-01-01T12:19:20.195Z,73.88
2023-01-01T12:21:55.273Z,67.13
2023-01-01T12:24:26.703Z,75.60
2023-01-01T12:27:30.726Z,68.15
2023-01-01T12:30:17.866Z,67.30
2023-01-01T12:33:17.521Z,71.90
2023-01-01T12:36:26.965Z,69.70
2023-01-01T12:39:35.552Z,62.33
2023-01-01T12:42:31.961Z,66.22
2023-01-01T12:45:30.523Z,58.00
2023-01-01T12:48:17.757Z,55.72
2023-01-01T12:51:09.013Z,59.97
2023-01-01T12:54:14.163Z,59.83
2023-01-01T12:57:16.950Z,60.03
2023-01-01T12:59:54.841Z,67.88
2023-01-01T13:02:44.185Z,58.25
2023-01-01T13:05:26.603Z,65.38
2023-01-01T13:08:01.949Z,53.97
2023-01-01T13:10:35.925Z,50.30
2023-01-01T13:13:05.638Z,52.15
2023-01-01T13:15:45.815Z,49.45
2023-01-01T13:18:37.132Z,48.20
2023-01-01T13:21:28.881Z,48.92
2023-01-01T13:24:20.992Z,39.33
2023-01-01T13:26:53.594Z,38.53
2023-01-01T13:29:28.126Z,38.00
2023-01-01T13:32:09.154Z,37.42
2023-01-01T13:35:00.189Z,38.65
2023-01-01T13:37:35.027Z,32.92
2023-01-01T13:40:37.430Z,34.78
2023-01-01T13:43:16.549Z,36.15
2023-01-01T13:46:14.520Z,31.88
2023-01-01T13:49:27.335Z,31.58
2023-01-01T13:52:36.064Z,30.75
2023-01-01T13:55:48.687Z,33.80
2023-01-01T13:58:58.473Z,36.97
2023-01-01T14:02:16.225Z,42.05
2023-01-01T14:05:07.238Z,42.58
2023-01-01T14:07:51.961Z,41.30
2023-01-01T14:10:42.638Z,38.13
2023-01-01T14:13:23.682Z,42.00
2023-01-01T14:16:06.197Z,40.63
2023-01-01T14:18:53.972Z,40.75
2023-01-01T14:21:27.000Z,43.88
2023-01-01T14:24:07.408Z,41.65
2023-01-01T14:26:41.215Z,40.35
2023-01-01T14:29:19.684Z,46.47
2023-01-01T14:31:55.242Z,44.58
2023-01-01T14:34:37.713Z,47.08
2023-01-01T14:37:21.617Z,45.50
2023-01-01T14:40:32.813Z,40.78
2023-01-01T14:43:32.291Z,43.03
2023-01-01T14:46:14.130Z,53.20
2023-01-01T14:48:56.149Z,51.65
2023-01-01T14:51:31.995Z,63.13
2023-01-01T14:54:04.735Z,49.42
2023-01-01T14:56:41.214Z,49.03
2023-01-01T14:59:27.763Z,49.80
2023-01-01T15:02:15.123Z,51.83
2023-01-01T15:04:44.914Z,59.20
2023-01-01T15:07:31.625Z,49.80
2023-01-01T15:10:10.535Z,44.50
2023-01-01T15:12:45.672Z,43.30
2023-01-01T15:15:44.500Z,47.70
2023-01-01T15:18:48.463Z,41.97
2023-01-01T15:21:43.441Z,45.22
2023-01-01T15:24:35.576Z,51.80
2023-01-01T15:27:10.013Z,51.92
2023-01-01T15:29:45.399Z,43.75
2023-01-01T15:32:43.935Z,48.53
2023-01-01T15:35:43.409Z,47.20
2023-01-01T15:38:24.176Z,54.03
2023-01-01T15:40:59.335Z,51.50
2023-01-01T15:43:38.322Z,45.85
2023-01-01T15:46:32.619Z,45.45
2023-01-01T15:49:27.394Z,47.67
2023-01-01T15:52:06.515Z,43.05
2023-01-01T15:54:41.377Z,46.83
2023-01-01T15:57:27.040Z,48.97
2023-01-01T15:59:57.018Z,46.05
2023-01-01T16:02:43.855Z,49.22
2023-01-01T16:05:27.829Z,49.97
2023-01-01T16:10:47.767Z,71.13
2023-01-01T16:13:17.361Z,67.95
2023-01-01T16:16:02.409Z,55.78
2023-01-01T16:18:36.043Z,46.20
2023-01-01T16:21:08.380Z,45.00
2023-01-01T16:23:44.962Z,52.92
2023-01-01T16:26:17.046Z,36.83
2023-01-01T16:28:48.251Z,36.92
2023-01-01T16:31:32.265Z,41.53
2023-01-01T16:34:02.193Z,49.50
2023-01-01T16:36:38.435Z,56.13
2023-01-01T16:39:11.000Z,57.33
2023-01-01T16:41:46.409Z,53.85
2023-01-01T16:44:19.573Z,56.45
2023-01-01T16:46:52.756Z,43.42
2023-01-01T16:49:23.924Z,42.42
2023-01-01T16:51:53.679Z,41.55
2023-01-01T16:54:24.234Z,38.45
2023-01-01T16:56:55.204Z,41.03
2023-01-01T16:59:24.903Z,50.90
2023-01-01T17:01:54.484Z,62.75
2023-01-01T17:04:25.066Z,54.78
2023-01-01T17:06:58.857Z,44.50
2023-01-01T17:09:28.880Z,48.85
2023-01-01T17:11:58.071Z,50.83
2023-01-01T17:14:32.166Z,48.28
2023-01-01T17:17:03.405Z,59.40
2023-01-01T17:19:33.748Z,57.85
2023-01-01T17:22:06.655Z,55.08
2023-01-01T17:24:36.994Z,59.53
2023-01-01T17:27:06.227Z,53.92
2023-01-01T17:29:37.793Z,59.35
2023-01-01T17:32:06.031Z,67.90
2023-01-01T17:34:36.005Z,52.97
2023-01-01T17:37:04.703Z,59.85
2023-01-01T17:39:32.287Z,52.22
2023-01-01T17:42:02.912Z,46.13
2023-01-01T17:44:34.053Z,40.83
2023-01-01T17:47:01.628Z,48.08
2023-01-01T17:49:33.802Z,50.75
2023-01-01T17:52:05.026Z,45.35
2023-01-01T17:54:33.911Z,51.60
2023-01-01T17:57:06.036Z,53.05
2023-01-01T17:59:36.890Z,47.83
2023-01-01T18:02:07.569Z,61.05
2023-01-01T18:04:40.407Z,47.47
2023-01-01T18:07:10.799Z,59.03
2023-01-01T18:09:40.824Z,62.30
2023-01-01T18:12:09.736Z,69.18
2023-01-01T18:14:42.152Z,65.40
2023-01-01T18:17:13.121Z,74.32
2023-01-01T18:20:01.981Z,71.40
2023-01-01T18:22:36.676Z,68.75
2023-01-01T18:25:10.408Z,67.03
2023-01-01T18:27:41.734Z,67.80
2023-01-01T18:30:13.866Z,75.30
2023-01-01T18:35:25.465Z,75.03
2023-01-01T18:38:00.191Z,76.28
2023-01-01T18:40:36.043Z,52.67
2023-01-01T18:43:18.204Z,73.20
2023-01-01T18:45:49.198Z,66.97
2023-01-01T18:48:22.950Z,81.30
2023-01-01T18:50:54.639Z,61.53
2023-01-01T18:53:26.959Z,74.70
2023-01-01T18:56:12.617Z,94.78
2023-01-01T18:58:47.247Z,90.25
2023-01-01T19:01:34.812Z,90.30
2023-01-01T19:04:16.139Z,87.43
2023-01-01T19:06:46.329Z,94.70
2023-01-01T19:09:26.915Z,98.68
2023-01-01T19:11:54.905Z,100.88
2023-01-01T19:14:31.334Z,98.57
2023-01-01T19:17:04.118Z,94.68
2023-01-01T19:19:49.977Z,98.15
2023-01-01T19:22:42.208Z,91.03
2023-01-01T19:25:46.314Z,91.22
2023-01-01T19:28:48.751Z,88.10
2023-01-01T19:31:19.225Z,90.00
2023-01-01T19:33:55.310Z,87.03
2023-01-01T19:36:28.017Z,89.57
2023-01-01T19:39:00.042Z,87.30
2023-01-01T19:41:30.246Z,89.63
2023-01-01T19:44:01.140Z,90.38
2023-01-01T19:46:31.498Z,88.40
2023-01-01T19:49:01.278Z,98.90
2023-01-01T19:51:33.724Z,101.32
2023-01-01T19:54:04.742Z,98.28
2023-01-01T19:56:34.172Z,98.10
2023-01-01T19:59:02.200Z,89.45
2023-01-01T20:01:33.775Z,93.80
2023-01-01T20:04:03.265Z,90.65
2023-01-01T20:06:35.090Z,101.22
2023-01-01T20:09:02.858Z,90.72
2023-01-01T20:11:34.697Z,94.95
2023-01-01T20:14:07.911Z,91.15
2023-01-01T20:16:40.001Z,86.80
2023-01-01T20:19:11.562Z,87.80
2023-01-01T20:22:03.077Z,89.85
2023-01-01T20:24:31.908Z,90.32
2023-01-01T20:27:01.983Z,94.07
2023-01-01T20:29:30.045Z,98.28
2023-01-01T20:32:00.938Z,97.30
2023-01-01T20:34:31.365Z,94.15
2023-01-01T20:37:19.299Z,87.10
2023-01-01T20:39:49.605Z,85.82
2023-01-01T20:42:17.968Z,89.35
2023-01-01T20:44:50.680Z,94.45
2023-01-01T20:47:20.698Z,101.57
2023-01-01T20:50:09.752Z,90.70
2023-01-01T20:52:43.276Z,88.68
2023-01-01T20:55:15.634Z,92.85
2023-01-01T20:57:47.997Z,90.15
2023-01-01T21:00:23.199Z,91.30
2023-01-01T21:02:55.523Z,114.72
2023-01-01T21:05:24.787Z,108.53
2023-01-01T21:07:57.877Z,111.40
2023-01-01T21:10:40.755Z,121.03
2023-01-01T21:13:15.742Z,116.97
2023-01-01T21:15:47.199Z,87.43
2023-01-01T21:18:18.367Z,105.85
2023-01-01T21:20:52.174Z,109.13
2023-01-01T21:23:28.974Z,95.50
2023-01-01T21:26:00.382Z,93.60
2023-01-01T21:28:34.911Z,95.40
2023-01-01T21:31:15.696Z,95.28
2023-01-01T21:33:47.808Z,92.38
2023-01-01T21:36:23.888Z,93.15
2023-01-01T21:38:53.388Z,92.43
2023-01-01T21:41:27.730Z,84.97
2023-01-01T21:43:58.335Z,90.65
2023-01-01T21:46:43.137Z,85.25
2023-01-01T21:49:41.622Z,85.95
2023-01-01T21:52:33.313Z,86.22
2023-01-01T21:55:21.253Z,88.07
2023-01-01T21:58:12.980Z,83.80
2023-01-01T22:00:49.158Z,78.00
2023-01-01T22:03:17.860Z,85.30
2023-01-01T22:05:54.327Z,77.72
2023-01-01T22:08:27.924Z,83.93
2023-01-01T22:11:01.837Z,82.28
2023-01-01T22:13:37.782Z,82.15
2023-01-01T22:16:09.876Z,82.50
2023-01-01T22:18:43.678Z,82.80
2023-01-01T22:21:21.969Z,86.65
2023-01-01T22:27:21.119Z,83.80
2023-01-01T22:29:59.815Z,89.03
2023-01-01T22:32:32.166Z,97.30
2023-01-01T22:35:27.993Z,71.47
2023-01-01T22:37:58.913Z,96.63
2023-01-01T22:40:42.216Z,96.88
2023-01-01T22:43:14.656Z,98.47
2023-01-01T22:45:48.719Z,99.22
2023-01-01T22:48:27.794Z,91.97
2023-01-01T22:51:00.175Z,90.20
2023-01-01T22:53:28.073Z,95.90
2023-01-01T22:56:01.180Z,89.25
2023-01-01T22:58:28.857Z,89.20
2023-01-01T23:00:56.296Z,92.30
2023-01-01T23:03:26.373Z,92.00
2023-01-01T23:05:58.813Z,95.90
2023-01-01T23:08:28.967Z,98.25
2023-01-01T23:11:01.884Z,94.70
2023-01-01T23:13:50.261Z,96.15
2023-01-01T23:16:20.123Z,97.03
2023-01-01T23:18:52.509Z,99.10
2023-01-01T23:21:27.044Z,98.25
2023-01-01T23:23:58.938Z,92.10
2023-01-01T23:26:27.408Z,94.90
2023-01-01T23:28:59.114Z,92.85
2023-01-01T23:31:33.726Z,99.65
2023-01-01T23:34:08.582Z,97.32
2023-01-01T23:36:37.690Z,109.05
2023-01-01T23:39:09.410Z,107.05
2023-01-01T23:41:40.793Z,101.13
2023-01-01T23:44:11.565Z,102.22
2023-01-01T23:46:41.750Z,106.72
2023-01-01T23:49:12.737Z,101.70
2023-01-01T23:51:46.502Z,109.40
2023-01-01T23:54:15.562Z,106.88
2023-01-01T23:56:49.626Z,108.28
2023-01-01T23:59:20.889Z,102.65
